Time;durP1;ratioP1;P1;durP2;ratioP2;P2;SDS_P1;SDS_P2;PMS_P1;PMS_P2;Temp;Humidity;BMP_temperature;BMP_pressure;BME280_temperature;BME280_humidity;BME280_pressure;Samples;Min_cycle;Max_cycle;Signal;HPM_P1;HPM_P2
2022/12/29 00:01:51;;;;;;;0.98;0.20;;;;;;;17.75;51.19;100000.94;5040009;28;20043;-63
2022/12/29 00:04:17;;;;;;;1.63;0.35;;;;;;;17.72;51.99;100001.31;5073493;28;20119;-63
2022/12/29 00:06:42;;;;;;;0.20;0.20;;;;;;;17.69;52.58;99993.59;5074677;28;20082;-63
2022/12/29 00:09:11;;;;;;;2.78;0.30;;;;;;;17.67;51.75;99987.50;5040073;28;20154;-64
2022/12/29 00:11:36;;;;;;;0.30;0.30;;;;;;;17.68;52.17;99989.19;5040026;28;20024;-63
2022/12/29 00:16:45;;;;;;;0.20;0.20;;;;;;;17.65;52.61;99977.91;5058696;28;20043;-62
2022/12/29 00:36:12;;;;;;;0.20;0.20;;;;;;;17.72;52.14;99957.97;5058125;28;20035;-64
2022/12/29 00:44:10;;;;;;;0.63;0.30;;;;;;;17.86;51.91;99959.75;5059060;28;20565;-63
2022/12/29 00:46:40;;;;;;;0.17;0.13;;;;;;;17.90;51.53;99949.34;5039245;28;20037;-63
2022/12/29 00:51:52;;;;;;;1.08;0.28;;;;;;;18.01;51.97;99946.06;5058896;28;20581;-63
2022/12/29 00:54:18;;;;;;;0.57;0.20;;;;;;;18.04;52.15;99951.94;5056057;28;20029;-63
2022/12/29 00:56:46;;;;;;;0.20;0.20;;;;;;;18.08;51.57;99954.25;5056685;28;20043;-63
2022/12/29 00:59:11;;;;;;;0.20;0.20;;;;;;;18.09;51.17;99958.66;5040010;28;20111;-63
2022/12/29 01:01:37;;;;;;;0.20;0.17;;;;;;;18.10;51.64;99960.31;5056185;28;20510;-63
2022/12/29 01:04:04;;;;;;;0.65;0.30;;;;;;;18.11;52.05;99943.03;5039101;28;20037;-63
2022/12/29 01:06:29;;;;;;;0.68;0.20;;;;;;;18.13;51.22;99940.94;5055618;28;20119;-63
2022/12/29 01:11:39;;;;;;;0.10;0.10;;;;;;;18.13;51.67;99938.22;5058885;28;20060;-63
2022/12/29 01:14:04;;;;;;;0.32;0.32;;;;;;;18.15;52.03;99928.00;5055442;28;20492;-63
2022/12/29 01:16:30;;;;;;;1.67;0.20;;;;;;;18.15;50.89;99917.16;5055526;28;20381;-63
2022/12/29 01:18:55;;;;;;;0.15;0.10;;;;;;;18.17;52.01;99915.13;5038548;28;20089;-63
2022/12/29 01:21:21;;;;;;;1.35;0.20;;;;;;;18.19;51.34;99926.59;5055191;28;20056;-63
2022/12/29 01:23:46;;;;;;;1.13;0.20;;;;;;;18.19;51.23;99921.16;5055458;28;20115;-63
2022/12/29 01:26:14;;;;;;;0.52;0.28;;;;;;;18.19;51.71;99907.63;5055641;28;20029;-64
2022/12/29 01:28:40;;;;;;;0.60;0.20;;;;;;;18.20;51.13;99915.53;5037981;28;20039;-63
2022/12/29 01:31:09;;;;;;;0.70;0.20;;;;;;;18.22;51.17;99926.19;5038810;28;20032;-62
2022/12/29 01:33:34;;;;;;;0.30;0.30;;;;;;;18.19;50.85;99915.75;5035952;28;20414;-65
2022/12/29 01:36:01;;;;;;;0.40;0.15;;;;;;;18.20;50.84;99931.00;5071888;28;20025;-63
2022/12/29 01:38:26;;;;;;;0.75;0.40;;;;;;;18.20;50.60;99912.00;5038848;28;20458;-63
2022/12/29 01:40:52;;;;;;;0.35;0.35;;;;;;;18.21;50.69;99929.94;5038535;28;20185;-63
2022/12/29 01:43:17;;;;;;;0.63;0.20;;;;;;;18.19;50.63;99924.72;5054934;28;20040;-63
2022/12/29 01:45:48;;;;;;;2.85;0.30;;;;;;;18.19;50.99;99929.31;5071445;28;20488;-63
2022/12/29 01:48:14;;;;;;;0.93;0.15;;;;;;;18.18;51.00;99925.75;5061234;28;20032;-63
2022/12/29 01:50:45;;;;;;;1.80;0.30;;;;;;;18.19;51.11;99926.59;5044703;28;20036;-64
2022/12/29 01:53:25;;;;;;;0.57;0.30;;;;;;;18.18;50.21;99908.63;5029033;28;20031;-63
2022/12/29 01:55:54;;;;;;;1.10;0.30;;;;;;;18.17;50.84;99910.53;5061343;28;20497;-63
2022/12/29 01:58:20;;;;;;;0.30;0.30;;;;;;;18.19;50.68;99926.59;5045114;28;20041;-63
2022/12/29 02:00:46;;;;;;;0.43;0.30;;;;;;;18.15;50.24;99914.47;5061455;28;20033;-63
2022/12/29 02:03:11;;;;;;;0.70;0.30;;;;;;;18.19;50.04;99929.31;5079645;28;20446;-63
2022/12/29 02:05:42;;;;;;;1.65;0.40;;;;;;;18.21;49.92;99927.22;5061941;28;20036;-63
2022/12/29 02:08:09;;;;;;;1.73;0.35;;;;;;;18.22;50.37;99909.94;5061533;28;20040;-64
2022/12/29 02:10:35;;;;;;;3.83;0.63;;;;;;;18.23;50.52;99919.75;5044751;28;20471;-63
2022/12/29 02:13:00;;;;;;;1.75;0.65;;;;;;;18.26;50.45;99919.31;5044928;28;20036;-63
2022/12/29 02:15:43;;;;;;;0.50;0.40;;;;;;;18.27;50.42;99921.00;5078667;28;20032;-63
2022/12/29 02:18:50;;;;;;;0.63;0.40;;;;;;;18.27;50.30;99918.28;5079292;28;20101;-63
2022/12/29 02:21:28;;;;;;;0.32;0.30;;;;;;;18.27;50.37;99921.84;5057888;28;20381;-63
2022/12/29 02:24:28;;;;;;;0.35;0.30;;;;;;;18.25;50.50;99912.25;5061400;28;20021;-63
2022/12/29 02:27:31;;;;;;;0.93;0.47;;;;;;;18.21;50.64;99900.09;4990287;28;20058;-63
2022/12/29 02:30:15;;;;;;;0.13;0.13;;;;;;;18.19;50.30;99894.06;5061232;28;20012;-63
2022/12/29 02:32:52;;;;;;;0.50;0.40;;;;;;;18.19;50.23;99894.06;5044500;28;20051;-63
2022/12/29 02:35:49;;;;;;;2.75;0.60;;;;;;;18.19;50.50;99904.91;5062660;28;20024;-65
2022/12/29 02:38:25;;;;;;;0.47;0.40;;;;;;;18.18;49.85;99898.63;5064519;28;20475;-65
2022/12/29 02:40:52;;;;;;;1.08;0.35;;;;;;;18.18;50.52;99897.81;5064722;28;20039;-67
2022/12/29 02:43:30;;;;;;;0.40;0.30;;;;;;;18.16;50.02;99889.03;5062831;28;20421;-69
2022/12/29 02:45:59;;;;;;;0.50;0.20;;;;;;;18.19;49.76;99877.78;5045537;28;20040;-65
2022/12/29 02:48:38;;;;;;;1.77;0.40;;;;;;;18.20;50.73;99874.06;5060980;28;20553;-64
2022/12/29 02:51:08;;;;;;;1.02;0.25;;;;;;;18.21;49.59;99862.16;5044959;28;20373;-62
2022/12/29 02:56:19;;;;;;;2.50;1.45;;;;;;;18.21;50.66;99864.88;5063828;28;20039;-64
2022/12/29 02:58:44;;;;;;;1.13;0.40;;;;;;;18.22;50.12;99850.28;5057918;28;20115;-64
2022/12/29 03:01:31;;;;;;;0.90;0.20;;;;;;;18.22;50.53;99855.72;5041428;28;20531;-64
2022/12/29 03:04:45;;;;;;;0.20;0.20;;;;;;;18.22;50.80;99855.72;5076234;28;20035;-64
2022/12/29 03:07:19;;;;;;;1.27;1.17;;;;;;;18.23;49.78;99857.38;5057961;28;20032;-64
2022/12/29 03:10:00;;;;;;;0.98;0.30;;;;;;;18.24;50.23;99853.63;5057555;28;20032;-64
2022/12/29 03:18:14;;;;;;;0.20;0.10;;;;;;;18.24;50.43;99845.50;5060551;28;20036;-66
2022/12/29 03:21:00;;;;;;;2.28;0.10;;;;;;;18.25;50.48;99847.16;5058082;28;20043;-66
2022/12/29 03:23:27;;;;;;;0.75;0.30;;;;;;;18.25;50.49;99836.34;5058600;28;20381;-65
2022/12/29 03:25:55;;;;;;;1.17;0.30;;;;;;;18.26;50.35;99824.44;5057974;28;20029;-64
2022/12/29 03:28:24;;;;;;;1.75;0.47;;;;;;;18.25;50.19;99818.19;5058006;28;20028;-64
2022/12/29 03:30:50;;;;;;;0.10;0.10;;;;;;;18.29;50.65;99834.88;5057679;28;20492;-64
2022/12/29 03:33:19;;;;;;;1.38;0.20;;;;;;;18.29;50.17;99824.03;5057309;28;20032;-64
2022/12/29 03:35:45;;;;;;;0.20;0.08;;;;;;;18.29;50.19;99821.31;5057248;28;20062;-64
2022/12/29 03:38:20;;;;;;;0.50;0.20;;;;;;;18.30;50.20;99823.00;5057725;28;20021;-67
2022/12/29 03:40:48;;;;;;;2.55;0.10;;;;;;;18.33;50.59;99847.00;5075271;28;20040;-64
2022/12/29 03:43:14;;;;;;;1.08;0.30;;;;;;;18.33;50.45;99814.47;5040849;28;20032;-64
2022/12/29 03:45:40;;;;;;;2.88;0.20;;;;;;;18.36;49.91;99822.19;5057130;28;20041;-64
2022/12/29 03:48:05;;;;;;;0.30;0.20;;;;;;;18.35;50.05;99812.38;5074047;28;20139;-64
2022/12/29 03:50:31;;;;;;;0.95;0.15;;;;;;;18.38;49.93;99822.81;5057632;28;20098;-64
2022/12/29 03:52:56;;;;;;;2.15;0.30;;;;;;;18.38;50.14;99820.09;5057165;28;20407;-65
2022/12/29 03:55:22;;;;;;;0.38;0.10;;;;;;;18.36;49.77;99830.31;5040345;28;20191;-64
2022/12/29 03:57:47;;;;;;;0.30;0.10;;;;;;;18.36;49.69;99822.19;5057023;28;20032;-64
2022/12/29 04:00:13;;;;;;;0.25;0.10;;;;;;;18.35;49.73;99828.63;5040170;28;20048;-65
2022/12/29 04:02:38;;;;;;;0.32;0.17;;;;;;;18.36;49.93;99824.91;5040724;28;20043;-64
2022/12/29 04:05:04;;;;;;;0.40;0.20;;;;;;;18.35;49.76;99826.75;5056607;28;20049;-64
2022/12/29 04:07:30;;;;;;;0.95;0.20;;;;;;;18.36;49.95;99824.91;5056671;28;20139;-68
2022/12/29 04:09:55;;;;;;;0.40;0.30;;;;;;;18.36;49.43;99839.28;5022364;28;20032;-64
2022/12/29 04:12:20;;;;;;;0.22;0.20;;;;;;;18.37;49.71;99848.28;5056071;28;20123;-64
2022/12/29 04:14:46;;;;;;;0.95;0.20;;;;;;;18.40;50.27;99855.97;5074274;28;20384;-64
2022/12/29 04:17:11;;;;;;;2.05;0.75;;;;;;;18.39;49.68;99846.19;5057142;28;20029;-64
2022/12/29 04:19:37;;;;;;;0.47;0.30;;;;;;;18.36;49.93;99846.59;5039833;28;20060;-64
2022/12/29 04:22:02;;;;;;;2.25;0.25;;;;;;;18.36;49.74;99860.16;5056487;28;20044;-64
2022/12/29 04:24:28;;;;;;;0.20;0.13;;;;;;;18.36;49.83;99862.84;5073295;28;20036;-64
2022/12/29 04:26:54;;;;;;;0.20;0.10;;;;;;;18.36;49.81;99869.13;5056582;28;20044;-64
2022/12/29 04:29:19;;;;;;;0.80;0.22;;;;;;;18.37;49.75;99867.25;5040134;28;20446;-64
2022/12/29 04:31:45;;;;;;;0.20;0.10;;;;;;;18.36;49.54;99869.13;5039556;28;20060;-64
2022/12/29 04:34:10;;;;;;;1.70;0.20;;;;;;;18.38;49.40;99866.19;5056310;28;20127;-64
2022/12/29 04:36:35;;;;;;;0.50;0.25;;;;;;;18.37;49.28;99875.38;5056207;28;20040;-64
2022/12/29 04:39:01;;;;;;;0.32;0.20;;;;;;;18.39;49.38;99873.31;5039278;28;20557;-69
2022/12/29 04:41:27;;;;;;;0.73;0.20;;;;;;;18.43;49.32;99875.38;5039333;28;20040;-64
2022/12/29 04:43:53;;;;;;;0.20;0.15;;;;;;;18.42;49.88;99867.47;5073956;28;20029;-64
2022/12/29 04:46:18;;;;;;;1.60;0.22;;;;;;;18.41;49.40;99887.47;5055927;28;20089;-64
2022/12/29 04:48:44;;;;;;;0.73;0.30;;;;;;;18.43;49.90;99879.97;5073673;28;20044;-64
2022/12/29 04:51:09;;;;;;;0.35;0.30;;;;;;;18.46;49.32;99890.41;5056060;28;20071;-64
2022/12/29 04:53:35;;;;;;;0.22;0.20;;;;;;;18.45;49.30;99872.50;5023104;28;20064;-65
2022/12/29 04:56:00;;;;;;;0.80;0.22;;;;;;;18.43;49.43;99890.81;5055931;28;20035;-64
2022/12/29 04:58:25;;;;;;;1.90;0.40;;;;;;;18.40;49.70;99902.06;5055626;28;20036;-64
2022/12/29 05:00:51;;;;;;;0.28;0.13;;;;;;;18.38;49.60;99894.16;5073138;28;20531;-64
2022/12/29 05:03:17;;;;;;;2.40;0.57;;;;;;;18.35;49.64;99909.97;5056109;28;20028;-64
2022/12/29 05:05:43;;;;;;;2.92;1.50;;;;;;;18.35;49.34;99915.41;5073595;28;20040;-64
2022/12/29 05:08:08;;;;;;;1.35;0.50;;;;;;;18.32;50.01;99911.22;5055298;28;20167;-65
2022/12/29 05:10:33;;;;;;;0.70;0.13;;;;;;;18.32;49.40;99915.81;5055337;28;20047;-64
2022/12/29 05:12:59;;;;;;;0.98;0.30;;;;;;;18.29;49.64;99910.78;5039176;28;20408;-64
2022/12/29 05:15:25;;;;;;;0.40;0.30;;;;;;;18.28;49.45;99917.25;5055707;28;20108;-64
2022/12/29 05:17:50;;;;;;;2.78;0.90;;;;;;;18.29;49.62;99910.78;5038517;28;20055;-64
2022/12/29 05:20:16;;;;;;;0.20;0.20;;;;;;;18.29;49.36;99910.78;5055110;28;20025;-64
2022/12/29 05:22:41;;;;;;;1.75;0.35;;;;;;;18.28;49.55;99903.72;5054304;28;20431;-64
2022/12/29 05:25:07;;;;;;;1.80;0.10;;;;;;;18.29;49.43;99911.63;5055160;28;20063;-64
2022/12/29 05:27:32;;;;;;;0.30;0.20;;;;;;;18.30;49.28;99907.88;5039155;28;20063;-64
2022/12/29 05:29:58;;;;;;;4.53;0.57;;;;;;;18.32;49.21;99913.09;5055361;28;20497;-64
2022/12/29 05:32:23;;;;;;;2.50;0.20;;;;;;;18.34;48.96;99909.13;5038844;28;20032;-64
2022/12/29 05:34:49;;;;;;;0.55;0.15;;;;;;;18.35;48.87;99915.41;5038376;28;20025;-64
2022/12/29 05:37:14;;;;;;;4.15;0.20;;;;;;;18.34;49.45;99902.91;5038709;28;20124;-64
2022/12/29 05:39:40;;;;;;;0.95;0.17;;;;;;;18.36;48.99;99900.81;5055148;28;20060;-64
2022/12/29 05:42:05;;;;;;;6.13;0.50;;;;;;;18.35;48.61;99918.13;5038160;28;20489;-64
2022/12/29 05:44:31;;;;;;;2.70;0.40;;;;;;;18.36;49.12;99906.25;5038734;28;20040;-65
2022/12/29 05:46:56;;;;;;;4.88;0.43;;;;;;;18.33;48.62;99906.66;5038495;28;20040;-64
2022/12/29 05:49:22;;;;;;;5.35;0.47;;;;;;;18.32;48.41;99915.81;5054894;28;20044;-64
2022/12/29 05:51:47;;;;;;;0.45;0.28;;;;;;;18.32;48.33;99918.53;5055564;28;20564;-64
2022/12/29 05:54:12;;;;;;;2.80;0.47;;;;;;;18.30;48.70;99909.75;5056170;28;20029;-64
2022/12/29 05:56:38;;;;;;;2.55;0.50;;;;;;;18.29;48.64;99917.03;5055751;28;20051;-64
2022/12/29 05:59:04;;;;;;;0.22;0.20;;;;;;;18.29;48.32;99927.88;5072569;28;20035;-64
2022/12/29 06:01:29;;;;;;;4.32;0.30;;;;;;;18.32;48.59;99929.38;5055384;28;20036;-64
2022/12/29 06:03:54;;;;;;;1.50;0.40;;;;;;;18.31;48.68;99941.28;5021885;28;20032;-64
2022/12/29 06:06:20;;;;;;;1.65;0.30;;;;;;;18.30;49.07;99940.44;5055211;28;20052;-64
2022/12/29 06:08:46;;;;;;;3.35;0.50;;;;;;;18.30;48.33;99939.59;5054803;28;20118;-65
2022/12/29 06:11:11;;;;;;;1.75;0.32;;;;;;;18.31;48.21;99938.56;5072531;28;20045;-65
2022/12/29 06:13:37;;;;;;;0.30;0.30;;;;;;;18.23;48.50;99925.97;5053752;28;20031;-64
2022/12/29 06:16:03;;;;;;;1.77;0.30;;;;;;;18.32;48.20;99945.63;5054788;28;20112;-64
2022/12/29 06:18:28;;;;;;;2.70;0.82;;;;;;;18.32;48.05;99948.34;5037924;28;20044;-65
2022/12/29 06:20:54;;;;;;;1.30;0.30;;;;;;;18.34;48.17;99946.28;5054751;28;20031;-64
2022/12/29 06:23:19;;;;;;;2.72;0.40;;;;;;;18.33;48.09;99960.88;5055142;28;20028;-64
2022/12/29 06:25:47;;;;;;;3.95;0.77;;;;;;;18.34;48.10;99960.66;5072444;28;20381;-64
2022/12/29 06:28:12;;;;;;;0.60;0.40;;;;;;;18.32;48.34;99970.03;5054557;28;20039;-64
2022/12/29 06:30:38;;;;;;;1.65;0.73;;;;;;;18.29;47.90;99959.59;5038190;28;20119;-64
2022/12/29 06:33:03;;;;;;;1.67;0.32;;;;;;;18.29;48.13;99981.28;5054991;28;20036;-64
2022/12/29 06:35:28;;;;;;;2.35;0.60;;;;;;;18.27;48.36;99973.34;5058529;28;20028;-64
2022/12/29 06:37:54;;;;;;;2.67;0.30;;;;;;;18.26;48.15;99981.66;5058485;28;20028;-64
2022/12/29 06:40:19;;;;;;;2.72;0.73;;;;;;;18.25;47.99;99982.72;5076008;28;20536;-64
2022/12/29 06:42:45;;;;;;;1.20;0.30;;;;;;;18.24;47.65;99984.59;5075607;28;20028;-65
2022/12/29 06:45:10;;;;;;;2.67;0.30;;;;;;;18.25;47.50;99982.72;5041360;28;20071;-64
2022/12/29 06:47:36;;;;;;;1.95;0.40;;;;;;;18.22;47.61;99981.25;5058524;28;20060;-64
2022/12/29 06:50:02;;;;;;;0.43;0.40;;;;;;;18.21;47.68;99987.69;5058218;28;20083;-64
2022/12/29 06:52:28;;;;;;;1.75;0.45;;;;;;;18.18;48.01;99996.22;5041308;28;20033;-64
2022/12/29 06:54:54;;;;;;;3.67;0.40;;;;;;;18.20;47.46;99996.06;5074856;28;20025;-64
2022/12/29 06:57:20;;;;;;;1.77;0.25;;;;;;;18.16;47.49;99998.31;5058125;28;20033;-64
2022/12/29 06:59:45;;;;;;;1.25;0.65;;;;;;;18.14;47.76;100007.69;5057565;28;20020;-64
2022/12/29 07:02:11;;;;;;;3.60;0.30;;;;;;;18.12;47.50;100007.84;5076254;28;20107;-64
2022/12/29 07:04:36;;;;;;;1.85;0.50;;;;;;;18.09;47.99;100008.25;5076375;28;20036;-65
2022/12/29 07:07:02;;;;;;;1.38;0.40;;;;;;;18.09;48.30;100008.25;5059821;28;20040;-68
2022/12/29 07:09:28;;;;;;;3.17;0.68;;;;;;;18.07;47.25;100014.91;5060638;28;20033;-64
2022/12/29 07:11:53;;;;;;;0.57;0.47;;;;;;;18.06;47.27;100011.38;5059932;28;20035;-64
2022/12/29 07:14:18;;;;;;;4.75;0.80;;;;;;;18.06;48.16;100024.09;5041367;28;20032;-64
2022/12/29 07:16:44;;;;;;;1.40;0.43;;;;;;;18.02;48.08;100019.06;5075765;28;20043;-64
2022/12/29 07:19:09;;;;;;;0.73;0.30;;;;;;;18.02;47.99;100018.22;5057734;28;20033;-64
2022/12/29 07:21:35;;;;;;;1.55;0.55;;;;;;;18.02;47.68;100029.06;5075421;28;20110;-64
2022/12/29 07:24:00;;;;;;;4.38;0.68;;;;;;;18.03;47.87;100030.75;5024549;28;20503;-64
2022/12/29 07:26:25;;;;;;;2.17;0.57;;;;;;;18.02;48.00;100024.50;5057882;28;20029;-65
2022/12/29 07:28:51;;;;;;;3.45;0.60;;;;;;;18.02;47.53;100024.50;5075226;28;20040;-64
2022/12/29 07:31:19;;;;;;;8.95;0.75;;;;;;;18.02;47.72;100035.34;5075540;28;20052;-64
2022/12/29 07:33:44;;;;;;;1.10;0.47;;;;;;;18.03;47.14;100038.88;5075096;28;20040;-64
2022/12/29 07:36:11;;;;;;;1.98;0.57;;;;;;;18.01;47.68;100030.09;5040409;28;20388;-64
2022/12/29 07:38:36;;;;;;;2.30;0.30;;;;;;;17.97;47.14;100029.66;5041474;28;20032;-64
2022/12/29 07:41:02;;;;;;;5.50;0.30;;;;;;;17.96;47.70;100035.25;5057141;28;20040;-65
2022/12/29 07:43:27;;;;;;;3.22;0.50;;;;;;;17.97;47.62;100036.94;5040294;28;20415;-64
2022/12/29 07:45:53;;;;;;;2.58;0.43;;;;;;;17.95;47.27;100044.44;5074142;28;20504;-64
2022/12/29 07:48:18;;;;;;;1.45;0.45;;;;;;;17.94;47.40;100051.75;5040303;28;20040;-64
2022/12/29 07:50:43;;;;;;;2.80;0.80;;;;;;;17.92;47.34;100067.34;5074891;28;20431;-64
2022/12/29 07:53:09;;;;;;;3.35;0.95;;;;;;;17.85;47.24;100058.31;5057355;28;20515;-64
2022/12/29 07:55:34;;;;;;;5.95;0.90;;;;;;;17.84;47.78;100059.34;5074777;28;20036;-64
2022/12/29 07:58:00;;;;;;;3.00;0.47;;;;;;;17.82;47.03;100061.41;5056633;28;20400;-64
2022/12/29 08:00:25;;;;;;;5.05;0.63;;;;;;;17.81;47.30;100067.84;5023240;28;20492;-64
2022/12/29 08:02:50;;;;;;;2.35;0.35;;;;;;;17.79;48.06;100077.22;5056662;28;20085;-64
2022/12/29 08:05:16;;;;;;;5.10;0.50;;;;;;;17.79;47.90;100088.91;5056896;28;20028;-64
2022/12/29 08:07:45;;;;;;;4.85;0.73;;;;;;;17.76;47.33;100081.16;5040415;28;20090;-64
2022/12/29 08:10:11;;;;;;;5.78;0.52;;;;;;;17.77;47.05;100082.00;5074973;28;20111;-64
2022/12/29 08:12:40;;;;;;;6.88;0.47;;;;;;;17.78;47.41;100081.78;5039952;28;20060;-64
2022/12/29 08:15:09;;;;;;;3.70;0.65;;;;;;;17.79;47.71;100078.06;5040728;28;20025;-65
2022/12/29 08:17:35;;;;;;;5.63;0.80;;;;;;;17.74;47.19;100079.66;5041345;28;20370;-66
2022/12/29 08:20:00;;;;;;;6.10;0.90;;;;;;;17.77;47.33;100090.97;5056644;28;20522;-64
2022/12/29 08:22:26;;;;;;;5.00;0.50;;;;;;;17.81;47.87;100086.81;5056839;28;20527;-64
2022/12/29 08:24:51;;;;;;;8.60;0.90;;;;;;;17.80;47.79;100087.88;5057403;28;20423;-64
2022/12/29 08:27:17;;;;;;;4.22;0.70;;;;;;;17.82;47.80;100093.94;5023291;28;20384;-63
2022/12/29 08:29:42;;;;;;;1.33;0.38;;;;;;;17.83;47.36;100094.78;5056717;28;20404;-64
2022/12/29 08:32:08;;;;;;;1.52;0.30;;;;;;;17.81;47.35;100096.84;5057247;28;20016;-64
2022/12/29 08:34:33;;;;;;;4.95;0.60;;;;;;;17.82;47.10;100103.91;5074491;28;20041;-64
2022/12/29 08:36:59;;;;;;;4.03;0.77;;;;;;;17.83;47.30;100098.31;5074276;28;20445;-64
2022/12/29 08:39:24;;;;;;;1.80;0.82;;;;;;;17.83;47.05;100105.59;5040087;28;20078;-64
2022/12/29 08:41:50;;;;;;;3.10;0.50;;;;;;;17.90;46.53;100107.34;5039410;28;20456;-64
2022/12/29 08:44:15;;;;;;;7.10;1.30;;;;;;;17.94;47.32;100097.81;5039191;28;20040;-64
2022/12/29 08:46:40;;;;;;;2.28;0.63;;;;;;;17.96;46.70;100111.16;5022545;28;20465;-64
2022/12/29 08:49:06;;;;;;;0.80;0.25;;;;;;;17.94;47.42;100105.09;5055637;28;20552;-66
2022/12/29 08:51:31;;;;;;;3.13;0.50;;;;;;;17.96;46.84;100119.28;5073129;28;20041;-64
2022/12/29 08:53:57;;;;;;;2.47;0.65;;;;;;;17.94;47.11;100116.78;5055658;28;20036;-64
2022/12/29 08:56:23;;;;;;;2.03;0.45;;;;;;;17.95;47.29;100115.72;5055839;28;20075;-64
2022/12/29 08:58:49;;;;;;;6.00;0.45;;;;;;;17.98;46.68;100122.63;5039331;28;20041;-64
2022/12/29 09:01:15;;;;;;;8.55;1.50;;;;;;;18.01;46.62;100124.94;5039386;28;20495;-64
2022/12/29 09:03:40;;;;;;;2.63;0.50;;;;;;;18.06;47.31;100135.22;5055580;28;20115;-64
2022/12/29 09:06:06;;;;;;;4.25;0.38;;;;;;;18.04;46.90;100133.53;5039059;28;20036;-64
2022/12/29 09:08:31;;;;;;;6.65;0.90;;;;;;;18.04;46.66;100133.53;5039500;28;20180;-64
2022/12/29 09:11:08;;;;;;;5.68;0.60;;;;;;;18.02;47.00;100127.47;5022123;28;20086;-64
2022/12/29 09:13:33;;;;;;;5.68;0.90;;;;;;;18.01;46.29;100133.91;5073461;28;20548;-64
2022/12/29 09:15:59;;;;;;;6.05;1.55;;;;;;;18.02;47.09;100134.75;5038918;28;20166;-63
2022/12/29 09:18:24;;;;;;;2.47;0.75;;;;;;;18.02;46.95;100132.06;5055531;28;20040;-64
2022/12/29 09:20:56;;;;;;;2.78;0.60;;;;;;;18.04;46.77;100136.25;5055133;28;20114;-66
2022/12/29 09:23:21;;;;;;;2.55;0.40;;;;;;;18.05;46.63;100142.50;5055518;28;20551;-68
2022/12/29 09:25:47;;;;;;;3.90;0.63;;;;;;;18.01;46.22;100136.63;5073067;28;20047;-64
2022/12/29 09:28:12;;;;;;;5.28;1.02;;;;;;;18.04;46.80;100136.25;5054990;28;20039;-64
2022/12/29 09:30:37;;;;;;;6.05;0.43;;;;;;;18.06;46.15;100148.78;5072687;28;20032;-64
2022/12/29 09:33:03;;;;;;;3.50;0.77;;;;;;;18.05;46.31;100142.50;5073027;28;20136;-64
2022/12/29 09:35:28;;;;;;;1.70;0.52;;;;;;;18.07;45.78;100145.00;5038917;28;20381;-64
2022/12/29 09:37:54;;;;;;;3.35;0.68;;;;;;;18.04;45.86;100149.81;5073172;28;20036;-64
2022/12/29 09:40:29;;;;;;;3.30;0.63;;;;;;;18.08;45.98;100149.41;5055529;28;20028;-64
2022/12/29 09:43:19;;;;;;;4.35;0.50;;;;;;;18.09;45.36;100149.19;5055215;28;20106;-64
2022/12/29 09:45:53;;;;;;;5.35;0.55;;;;;;;18.08;45.76;100146.69;5072890;28;20044;-64
2022/12/29 09:48:32;;;;;;;1.67;0.70;;;;;;;18.10;45.64;100150.91;5054794;28;20036;-64
2022/12/29 09:51:00;;;;;;;2.83;1.42;;;;;;;18.16;45.52;100149.28;5054936;28;20384;-64
2022/12/29 09:53:32;;;;;;;3.03;0.70;;;;;;;18.22;45.54;100156.63;5055484;28;20025;-64
2022/12/29 09:56:00;;;;;;;3.72;0.60;;;;;;;18.25;45.19;100177.94;5055027;28;20116;-64
2022/12/29 09:58:30;;;;;;;6.00;0.82;;;;;;;18.30;44.91;100161.91;5054969;28;20035;-64
2022/12/29 10:01:17;;;;;;;2.75;0.55;;;;;;;18.36;45.09;100155.72;5037992;28;20033;-64
2022/12/29 10:03:46;;;;;;;4.03;0.60;;;;;;;18.57;45.20;100167.41;5072940;28;20427;-64
2022/12/29 10:06:13;;;;;;;4.25;0.55;;;;;;;18.67;44.58;100179.78;5055333;28;20727;-64
2022/12/29 10:08:59;;;;;;;4.95;0.50;;;;;;;18.64;44.60;100162.03;5058239;28;20477;-65
2022/12/29 10:11:49;;;;;;;3.33;0.77;;;;;;;18.77;44.06;100175.69;5042563;28;20048;-64
2022/12/29 10:14:38;;;;;;;5.97;1.55;;;;;;;18.74;44.48;100165.22;5077199;28;20119;-64
2022/12/29 10:17:35;;;;;;;7.43;0.90;;;;;;;18.65;44.56;100188.09;5077051;28;20059;-64
2022/12/29 10:20:16;;;;;;;4.10;1.05;;;;;;;18.66;45.03;100189.78;5040230;28;20431;-64
2022/12/29 10:23:01;;;;;;;4.30;0.73;;;;;;;18.77;44.37;100172.97;5076976;28;20035;-64
2022/12/29 10:25:30;;;;;;;4.65;0.73;;;;;;;18.77;44.19;100196.56;5058729;28;20122;-64
2022/12/29 10:27:58;;;;;;;3.03;0.55;;;;;;;18.81;44.53;100198.69;5077067;28;20404;-64
2022/12/29 10:30:23;;;;;;;4.95;0.80;;;;;;;18.87;44.49;100197.88;5058451;28;20040;-64
2022/12/29 10:33:01;;;;;;;7.20;0.95;;;;;;;18.79;44.23;100200.75;5041769;28;20412;-64
2022/12/29 10:35:33;;;;;;;2.67;0.60;;;;;;;18.75;44.80;100204.06;5059197;28;20025;-64
2022/12/29 10:38:10;;;;;;;7.57;1.00;;;;;;;18.91;43.94;100210.03;5041839;28;20496;-64
2022/12/29 10:40:57;;;;;;;4.20;0.40;;;;;;;18.86;43.75;100212.50;5058331;28;20032;-64
2022/12/29 10:43:45;;;;;;;2.47;0.50;;;;;;;18.77;43.99;100221.81;5076946;28;20089;-64
2022/12/29 10:46:13;;;;;;;3.75;0.65;;;;;;;18.68;44.25;100222.19;5076633;28;20041;-64
2022/12/29 10:48:38;;;;;;;8.02;0.77;;;;;;;18.69;44.14;100221.13;5042318;28;20044;-64
2022/12/29 10:51:05;;;;;;;5.10;1.02;;;;;;;18.66;44.01;100214.22;5077241;28;20032;-67
2022/12/29 10:53:44;;;;;;;8.15;0.80;;;;;;;18.73;44.08;100225.97;5058771;28;20028;-67
2022/12/29 10:56:33;;;;;;;5.90;0.85;;;;;;;18.91;43.86;100239.88;5058439;28;20037;-64
2022/12/29 10:59:03;;;;;;;5.78;0.93;;;;;;;18.92;43.48;100233.44;5076157;28;20041;-64
2022/12/29 11:01:35;;;;;;;4.40;0.73;;;;;;;18.93;43.54;100231.53;5058469;28;20029;-65
2022/12/29 11:04:08;;;;;;;4.55;0.60;;;;;;;18.95;43.25;100248.47;5041370;28;20029;-64
2022/12/29 11:06:34;;;;;;;6.95;0.65;;;;;;;18.93;43.58;100245.09;5075521;28;20029;-64
2022/12/29 11:09:12;;;;;;;5.53;0.80;;;;;;;18.91;43.52;100253.44;5076049;28;20434;-64
2022/12/29 11:11:38;;;;;;;10.32;1.00;;;;;;;18.95;43.72;100243.88;5058450;28;20040;-64
2022/12/29 11:14:14;;;;;;;2.85;0.35;;;;;;;18.95;43.46;100243.88;5057750;28;20040;-63
2022/12/29 11:16:41;;;;;;;4.82;0.70;;;;;;;18.93;43.74;100248.66;5057974;28;20028;-63
2022/12/29 11:19:23;;;;;;;4.18;0.57;;;;;;;18.93;43.78;100248.66;5057508;28;20029;-63
2022/12/29 11:21:48;;;;;;;6.85;0.95;;;;;;;18.99;43.29;100260.59;5057884;28;20033;-63
2022/12/29 11:24:26;;;;;;;4.32;0.43;;;;;;;19.04;43.05;100256.25;5058675;28;20024;-62
2022/12/29 11:26:57;;;;;;;6.63;0.85;;;;;;;19.02;43.76;100247.47;5040651;28;20093;-63
2022/12/29 11:29:27;;;;;;;5.18;0.60;;;;;;;19.05;43.59;100263.38;5041855;28;20020;-65
2022/12/29 11:31:55;;;;;;;3.50;0.63;;;;;;;19.03;43.60;100273.59;5024502;28;20040;-64
2022/12/29 11:34:33;;;;;;;2.90;0.60;;;;;;;19.01;43.10;100275.66;5057575;28;20040;-63
2022/12/29 11:37:06;;;;;;;3.42;0.45;;;;;;;18.99;43.54;100277.72;5058754;28;20111;-65
2022/12/29 11:39:46;;;;;;;7.47;0.98;;;;;;;18.93;43.67;100278.50;5042491;28;20050;-63
2022/12/29 11:42:21;;;;;;;5.32;0.88;;;;;;;18.92;43.31;100276.84;5059961;28;20033;-63
2022/12/29 11:44:48;;;;;;;1.35;0.35;;;;;;;18.91;43.20;100288.75;5041688;28;20020;-64
2022/12/29 11:47:27;;;;;;;1.30;0.50;;;;;;;18.86;43.64;100287.66;5041868;28;20031;-63
2022/12/29 11:49:58;;;;;;;2.75;1.27;;;;;;;18.83;42.72;100283.44;5073992;28;20139;-63
2022/12/29 11:52:27;;;;;;;5.82;0.45;;;;;;;18.80;43.26;100288.44;5040577;28;20500;-63
2022/12/29 11:54:53;;;;;;;4.22;1.58;;;;;;;18.78;43.32;100291.34;5056977;28;20036;-64
2022/12/29 11:57:19;;;;;;;11.73;1.15;;;;;;;18.73;43.14;100288.38;5040281;28;20025;-63
2022/12/29 11:59:54;;;;;;;1.98;0.57;;;;;;;18.69;43.47;100297.94;5023628;28;20417;-65
2022/12/29 12:02:20;;;;;;;4.93;0.98;;;;;;;18.70;43.48;100291.47;5057677;28;20031;-65
2022/12/29 12:04:47;;;;;;;2.95;0.68;;;;;;;18.61;43.19;100289.94;5074521;28;20119;-64
2022/12/29 12:07:15;;;;;;;4.70;0.82;;;;;;;18.66;43.49;100292.91;5040353;28;20115;-64
2022/12/29 12:09:54;;;;;;;1.67;0.57;;;;;;;18.64;43.51;100303.13;5056493;28;20071;-63
2022/12/29 12:12:45;;;;;;;5.43;0.68;;;;;;;18.62;43.43;100299.72;5074119;28;20037;-63
2022/12/29 12:15:39;;;;;;;11.07;1.00;;;;;;;18.59;43.17;100292.00;4993594;28;20149;-63
2022/12/29 12:18:10;;;;;;;8.85;1.25;;;;;;;18.55;43.45;100296.97;5055779;28;20384;-63